createdAt,value
2022-10-19T00:00:40.971Z,10.75
2022-10-19T00:03:30.569Z,10.72
2022-10-19T00:06:29.042Z,10.67
2022-10-19T00:09:14.713Z,10.65
2022-10-19T00:11:51.350Z,10.62
2022-10-19T00:14:38.880Z,10.60
2022-10-19T00:17:32.781Z,10.57
2022-10-19T00:20:03.343Z,10.55
2022-10-19T00:22:40.952Z,10.55
2022-10-19T00:25:12.410Z,10.53
2022-10-19T00:27:43.182Z,10.50
2022-10-19T00:30:19.014Z,10.49
2022-10-19T00:32:50.203Z,10.47
2022-10-19T00:35:26.790Z,10.47
2022-10-19T00:38:12.157Z,10.44
2022-10-19T00:40:54.383Z,10.40
2022-10-19T00:43:31.006Z,10.36
2022-10-19T00:46:18.835Z,10.32
2022-10-19T00:51:18.352Z,10.26
2022-10-19T00:53:47.153Z,10.24
2022-10-19T00:56:34.602Z,10.23
2022-10-19T00:59:31.357Z,10.18
2022-10-19T01:02:14.352Z,10.14
2022-10-19T01:04:52.671Z,10.11
2022-10-19T01:07:21.706Z,10.06
2022-10-19T01:09:55.542Z,10.04
2022-10-19T01:12:41.925Z,10.00
2022-10-19T01:15:28.525Z,9.98
2022-10-19T01:18:11.554Z,9.95
2022-10-19T01:20:57.715Z,9.95
2022-10-19T01:24:03.764Z,9.94
2022-10-19T01:27:02.168Z,9.89
2022-10-19T01:29:55.254Z,9.86
2022-10-19T01:32:59.842Z,9.83
2022-10-19T01:35:53.040Z,9.81
2022-10-19T01:39:04.919Z,9.79
2022-10-19T01:42:16.934Z,9.75
2022-10-19T01:45:24.504Z,9.73
2022-10-19T01:48:06.913Z,9.70
2022-10-19T01:50:50.453Z,9.68
2022-10-19T01:53:34.028Z,9.66
2022-10-19T01:56:06.004Z,9.66
2022-10-19T01:58:39.905Z,9.64
2022-10-19T02:01:19.400Z,9.62
2022-10-19T02:03:52.164Z,9.62
2022-10-19T02:06:28.893Z,9.61
2022-10-19T02:08:57.995Z,9.58
2022-10-19T02:11:26.693Z,9.60
2022-10-19T02:14:10.516Z,9.55
2022-10-19T02:16:52.343Z,9.50
2022-10-19T02:21:57.544Z,9.44
2022-10-19T02:24:36.283Z,9.42
2022-10-19T02:27:09.086Z,9.37
2022-10-19T02:29:41.503Z,9.32
2022-10-19T02:32:26.006Z,9.30
2022-10-19T02:35:15.772Z,9.30
2022-10-19T02:37:52.889Z,9.29
2022-10-19T02:40:33.699Z,9.28
2022-10-19T02:43:11.233Z,9.27
2022-10-19T02:45:54.943Z,9.27
2022-10-19T02:48:32.004Z,9.24
2022-10-19T02:51:37.794Z,9.23
2022-10-19T02:54:08.623Z,9.20
2022-10-19T02:56:40.783Z,9.16
2022-10-19T02:59:16.769Z,9.16
2022-10-19T03:01:51.157Z,9.14
2022-10-19T03:04:24.713Z,9.12
2022-10-19T03:06:53.970Z,9.13
2022-10-19T03:09:22.264Z,9.11
2022-10-19T03:11:57.373Z,9.11
2022-10-19T03:14:43.048Z,9.11
2022-10-19T03:17:15.446Z,9.08
2022-10-19T03:19:53.115Z,9.09
2022-10-19T03:22:23.231Z,9.10
2022-10-19T03:24:59.831Z,9.09
2022-10-19T03:27:33.294Z,9.08
2022-10-19T03:30:02.623Z,9.06
2022-10-19T03:32:45.085Z,9.03
2022-10-19T03:35:20.302Z,9.03
2022-10-19T03:37:55.865Z,9.00
2022-10-19T03:40:28.206Z,8.95
2022-10-19T03:43:02.355Z,8.93
2022-10-19T03:45:40.781Z,8.92
2022-10-19T03:48:14.317Z,8.92
2022-10-19T03:51:06.871Z,8.92
2022-10-19T03:53:43.525Z,8.91
2022-10-19T03:56:22.463Z,8.89
2022-10-19T03:59:01.901Z,8.89
2022-10-19T04:01:41.753Z,8.87
2022-10-19T04:04:19.387Z,8.86
2022-10-19T04:06:56.053Z,8.83
2022-10-19T04:09:25.952Z,8.82
2022-10-19T04:12:11.708Z,8.82
2022-10-19T04:14:57.444Z,8.82
2022-10-19T04:17:30.355Z,8.79
2022-10-19T04:20:03.496Z,8.79
2022-10-19T04:22:33.405Z,8.80
2022-10-19T04:25:08.067Z,8.79
2022-10-19T04:27:43.932Z,8.82
2022-10-19T04:30:17.073Z,8.84
2022-10-19T04:33:12.025Z,8.83
2022-10-19T04:35:43.529Z,8.82
2022-10-19T04:38:26.928Z,8.79
2022-10-19T04:40:57.384Z,8.79
2022-10-19T04:43:29.245Z,8.76
2022-10-19T04:46:32.030Z,8.74
2022-10-19T04:49:08.357Z,8.73
2022-10-19T04:51:47.004Z,8.74
2022-10-19T04:54:28.089Z,8.73
2022-10-19T04:57:06.718Z,8.73
2022-10-19T04:59:46.897Z,8.74
2022-10-19T05:02:30.838Z,8.74
2022-10-19T05:05:11.675Z,8.73
2022-10-19T05:07:54.951Z,8.74
2022-10-19T05:10:34.957Z,8.73
2022-10-19T05:13:09.894Z,8.71
2022-10-19T05:15:47.425Z,8.73
2022-10-19T05:18:21.219Z,8.72
2022-10-19T05:20:52.389Z,8.72
2022-10-19T05:23:27.075Z,8.72
2022-10-19T05:26:22.155Z,8.73
2022-10-19T05:29:11.901Z,8.69
2022-10-19T05:31:46.272Z,8.67
2022-10-19T05:34:26.493Z,8.67
2022-10-19T05:37:01.257Z,8.68
2022-10-19T05:39:35.093Z,8.68
2022-10-19T05:42:23.449Z,8.67
2022-10-19T05:45:18.655Z,8.68
2022-10-19T05:47:57.440Z,8.69
2022-10-19T05:50:25.864Z,8.70
2022-10-19T05:52:54.097Z,8.73
2022-10-19T05:55:22.143Z,8.77
2022-10-19T05:57:53.267Z,8.79
2022-10-19T06:00:21.449Z,8.81
2022-10-19T06:02:50.182Z,8.80
2022-10-19T06:05:18.496Z,8.79
2022-10-19T06:07:46.717Z,8.79
2022-10-19T06:10:14.963Z,8.80
2022-10-19T06:12:43.346Z,8.77
2022-10-19T06:15:11.488Z,8.78
2022-10-19T06:17:40.215Z,8.80
2022-10-19T06:20:20.470Z,8.80
2022-10-19T06:26:12.149Z,8.80
2022-10-19T06:29:27.516Z,8.84
2022-10-19T06:32:31.871Z,8.82
2022-10-19T06:35:34.697Z,8.78
2022-10-19T06:38:21.434Z,8.77
2022-10-19T06:41:49.998Z,8.77
2022-10-19T06:50:59.559Z,8.70
2022-10-19T06:53:56.603Z,8.67
2022-10-19T06:57:41.741Z,8.63
2022-10-19T07:04:15.272Z,8.57
2022-10-19T07:07:22.682Z,8.61
2022-10-19T07:17:07.473Z,8.81
2022-10-19T07:20:41.869Z,8.87
2022-10-19T07:23:54.460Z,8.94
2022-10-19T07:29:48.323Z,9.14
2022-10-19T07:32:36.445Z,9.19
2022-10-19T07:36:32.923Z,9.21
2022-10-19T07:43:31.494Z,9.26
2022-10-19T07:46:15.254Z,9.29
2022-10-19T07:52:39.157Z,9.25
2022-10-19T07:55:29.829Z,9.22
2022-10-19T08:01:32.363Z,9.20
2022-10-19T08:05:00.119Z,9.17
2022-10-19T08:11:02.129Z,9.33
2022-10-19T08:13:40.323Z,9.40
2022-10-19T08:17:05.139Z,9.53
2022-10-19T08:23:04.825Z,9.52
2022-10-19T08:25:54.662Z,9.59
2022-10-19T08:28:49.382Z,9.61
2022-10-19T08:32:00.238Z,9.60
2022-10-19T08:35:01.125Z,9.67
2022-10-19T08:38:37.466Z,9.81
2022-10-19T08:42:11.657Z,9.92
2022-10-19T08:45:33.188Z,10.04
2022-10-19T08:49:02.829Z,10.03
2022-10-19T08:52:57.480Z,10.07
2022-10-19T09:00:08.210Z,10.13
2022-10-19T09:03:31.948Z,10.17
2022-10-19T09:07:03.984Z,10.27
2022-10-19T09:10:25.477Z,10.39
2022-10-19T09:16:40.659Z,10.23
2022-10-19T09:19:48.326Z,10.12
2022-10-19T09:27:19.003Z,10.31
2022-10-19T09:30:53.981Z,10.41
2022-10-19T09:40:08.608Z,10.51
2022-10-19T09:43:27.061Z,10.44
2022-10-19T09:50:01.720Z,10.39
2022-10-19T09:53:51.135Z,10.49
2022-10-19T09:57:26.609Z,10.52
2022-10-19T10:03:44.648Z,10.55
2022-10-19T10:09:47.649Z,10.61
2022-10-19T10:13:00.923Z,10.60
2022-10-19T10:16:11.108Z,10.59
2022-10-19T10:26:07.916Z,10.60
2022-10-19T10:29:33.082Z,10.59
2022-10-19T10:32:47.233Z,10.65
2022-10-19T10:36:21.095Z,10.73
2022-10-19T10:39:32.455Z,10.81
2022-10-19T10:42:27.073Z,10.94
2022-10-19T10:45:33.913Z,11.04
2022-10-19T10:49:15.713Z,11.05
2022-10-19T10:52:23.978Z,11.14
2022-10-19T10:55:34.142Z,11.27
2022-10-19T10:58:46.718Z,11.39
2022-10-19T11:02:07.117Z,11.41
2022-10-19T11:07:43.471Z,11.27
2022-10-19T11:09:36.335Z,11.26
2022-10-19T11:12:40.293Z,11.34
2022-10-19T11:16:01.688Z,11.42
2022-10-19T11:26:14.066Z,11.50
2022-10-19T11:29:16.484Z,11.46
2022-10-19T11:36:04.101Z,11.41
2022-10-19T11:39:15.388Z,11.46
2022-10-19T11:42:41.491Z,11.48
2022-10-19T11:45:51.506Z,11.37
2022-10-19T11:48:54.743Z,11.31
2022-10-19T11:52:13.050Z,11.32
2022-10-19T11:55:55.213Z,11.21
2022-10-19T12:02:37.438Z,11.34
2022-10-19T12:05:45.554Z,11.37
2022-10-19T12:09:04.407Z,11.18
2022-10-19T12:12:16.508Z,11.09
2022-10-19T12:15:20.167Z,11.10
2022-10-19T12:18:03.470Z,11.05
2022-10-19T12:25:02.684Z,11.27
2022-10-19T12:32:17.279Z,11.28
2022-10-19T12:40:04.029Z,11.34
2022-10-19T12:44:13.110Z,11.29
2022-10-19T12:47:25.041Z,11.18
2022-10-19T12:50:26.218Z,11.19
2022-10-19T12:53:41.613Z,11.22
2022-10-19T12:57:03.124Z,11.20
2022-10-19T12:59:46.146Z,11.20
2022-10-19T13:03:02.090Z,11.14
2022-10-19T13:05:50.606Z,11.32
2022-10-19T13:09:15.053Z,11.86
2022-10-19T13:16:36.505Z,12.80
2022-10-19T13:19:25.182Z,12.93
2022-10-19T13:22:15.159Z,13.20
2022-10-19T13:25:37.939Z,13.66
2022-10-19T13:28:51.501Z,14.00
2022-10-19T13:32:07.655Z,14.03
2022-10-19T13:35:28.356Z,13.80
2022-10-19T13:38:49.693Z,13.62
2022-10-19T13:41:37.817Z,13.67
2022-10-19T13:44:25.208Z,13.75
2022-10-19T13:47:21.636Z,13.74
2022-10-19T13:50:18.637Z,13.71
2022-10-19T13:53:16.089Z,13.67
2022-10-19T13:56:12.361Z,14.20
2022-10-19T13:59:17.433Z,14.72
2022-10-19T14:02:48.065Z,14.93
2022-10-19T14:06:01.599Z,15.02
2022-10-19T14:09:05.218Z,14.52
2022-10-19T14:11:43.866Z,13.77
2022-10-19T14:14:22.779Z,13.64
2022-10-19T14:17:09.562Z,13.55
2022-10-19T14:19:55.289Z,13.92
2022-10-19T14:22:44.136Z,14.01
2022-10-19T14:25:36.342Z,14.32
2022-10-19T14:28:21.830Z,14.41
2022-10-19T14:31:18.859Z,14.15
2022-10-19T14:33:55.435Z,13.68
2022-10-19T14:36:36.260Z,13.26
2022-10-19T14:39:05.296Z,12.85
2022-10-19T14:41:38.153Z,12.59
2022-10-19T14:44:40.087Z,12.55
2022-10-19T14:47:27.436Z,12.34
2022-10-19T14:49:56.493Z,12.19
2022-10-19T14:52:36.903Z,12.13
2022-10-19T14:55:18.184Z,12.09
2022-10-19T14:57:53.816Z,12.01
2022-10-19T15:03:11.499Z,12.03
2022-10-19T15:05:56.743Z,12.54
2022-10-19T15:08:49.718Z,12.46
2022-10-19T15:11:27.125Z,12.15
2022-10-19T15:14:17.741Z,11.86
2022-10-19T15:17:11.011Z,11.62
2022-10-19T15:19:44.122Z,11.45
2022-10-19T15:22:29.111Z,11.27
2022-10-19T15:25:09.123Z,11.10
2022-10-19T15:27:58.061Z,10.97
2022-10-19T15:30:35.448Z,10.81
2022-10-19T15:33:12.114Z,10.68
2022-10-19T15:35:46.420Z,10.55
2022-10-19T15:38:26.972Z,10.46
2022-10-19T15:41:09.005Z,10.38
2022-10-19T15:43:39.533Z,10.28
2022-10-19T15:46:16.666Z,10.20
2022-10-19T15:48:58.543Z,10.13
2022-10-19T15:54:29.981Z,10.04
2022-10-19T15:57:05.713Z,10.02
2022-10-19T15:59:37.393Z,9.99
2022-10-19T16:02:15.455Z,10.00
2022-10-19T16:04:54.416Z,10.03
2022-10-19T16:07:38.159Z,10.05
2022-10-19T16:10:21.051Z,10.08
2022-10-19T16:13:16.275Z,10.10
2022-10-19T16:16:12.638Z,10.13
2022-10-19T16:18:54.616Z,10.16
2022-10-19T16:21:39.562Z,10.20
2022-10-19T16:24:19.536Z,10.23
2022-10-19T16:27:30.155Z,10.25
2022-10-19T16:30:09.061Z,10.26
2022-10-19T16:32:43.251Z,10.27
2022-10-19T16:35:29.272Z,10.27
2022-10-19T16:38:06.235Z,10.25
2022-10-19T16:41:16.064Z,10.22
2022-10-19T16:44:00.820Z,10.17
2022-10-19T16:46:31.674Z,10.11
2022-10-19T16:49:14.488Z,10.07
2022-10-19T16:51:45.448Z,10.02
2022-10-19T16:58:40.986Z,9.73
2022-10-19T17:10:42.508Z,9.04
2022-10-19T17:13:11.556Z,8.94
2022-10-19T17:15:44.594Z,8.88
2022-10-19T17:18:15.138Z,8.78
2022-10-19T17:20:43.569Z,8.69
2022-10-19T17:23:12.212Z,8.54
2022-10-19T17:25:51.845Z,8.40
2022-10-19T17:28:25.528Z,8.26
2022-10-19T17:30:59.959Z,8.17
